Akron, OH (44301)

2:30 AM EST on December 11, 2016 (GMT -0500)
Firestone Park | | Change Station
Active Advisory: Winter Weather Advisory Active Notice: Public Information Statement

Elev 1115 ft 41.05 °N, 81.52 °W | Updated 3 minutes ago

Light Snow
Light Snow
23.2 °F
Feels Like 23 °F
N
0.0
Wind Variable Wind from SW

Today
High -- | Low -- °F
--% Chance of Precip.
Yesterday
High -- | Low -- °F
Precip. -- in
Pressure 30.40 in
Visibility 1.8 miles
Clouds Overcast 2600 ft
Windchill 23 °F
Dew Point 20 °F
Humidity 88%
Rainfall 0.00 in
Snow Depth Not available.
7:41 AM 4:57 PM
Waxing Gibbous, 89% visible
SPECI KAKR 110715Z AUTO 20007KT 1 3/4SM -SN OVC026 M04/M07 A3040 RMK AO2 P0000 T10391072
Pressure 30.40 in
Visibility 1.8 miles
Clouds Overcast 2600 ft
Windchill 23 °F
Dew Point 20 °F
Humidity 88%
Rainfall 0.00 in
Snow Depth Not available.
7:41 AM 4:57 PM
Waxing Gibbous, 89% visible
SPECI KAKR 110715Z AUTO 20007KT 1 3/4SM -SN OVC026 M04/M07 A3040 RMK AO2 P0000 T10391072

10-Day Weather Forecast

Almanac

Astronomy

Dec. 11, 2016 Rise Set
Actual Time
Civil Twilight
Nautical Twilight
Astronomical Twilight
Moon
Length of Visible Light
Length of Day
Tomorrow will be .
, % of the Moon is Illuminated

Today's Extremes

State Highs State Lows

Community

WunderPhotos

Upload Photos

1,956,707 photos uploaded!

WunderBlog® & News

Nearby

Air Quality

  Air Quality AQ Index Pollutant
Not available.

Snow Depth

Station Depth Elevation

Earthquake Activity

City Distance Mag. Time & Date
Minimum magnitude displayed is 2.5.

Coastal Water Temperatures

Place Temperature

Stations

Nearby Weather Stations

Station Location Temp. Windchill Dew Point Humidity Wind Precip. Elev Updated Type
                   

Watches & Warnings

Winter Weather Advisory
Issued: 9:09 PM EST Dec. 10, 2016 – National Weather Service

... Winter Weather Advisory remains in effect from 1 am Sunday to
4 am EST Monday...

* accumulations... snow accumulation of 1 to 3 inches tonight and
2 to 4 inches on Sunday making for a storm total of 3 to 7
inches by late Sunday night.

* Timing... snow will develop tonight and continue Sunday. The
snow will mix with and possibly change to all rain rain Sunday
evening... especially south of the Turnpike... before ending
late Sunday night.

* Impacts... snow covered roads and walkways. Hazardous driving
conditions on untreated roads with reduced visibilities.

* Winds... south 5 to 10 mph tonight. South 10 to 20 mph with
gusts to 25 mph Sunday.

* Temperatures... in the lower 20s tonight rising to the lower
30s Sunday and mid 30s Sunday evening.

Precautionary/preparedness actions...

A Winter Weather Advisory for snow is issued when moderate
amounts of accumulating snow will cause travel difficulties. Be
prepared for snow covered roads and limited visibilities... and
use caution while driving.



Garnet